Time,TemperatureF,DewpointF,PressureIn,WindDirection,WindDirectionDegrees,WindSpeedMPH,WindSpeedGustMPH,Humidity,HourlyPrecipIn,Conditions,Clouds,dailyrainin,SoftwareType,DateUTC
2013-07-29 00:02:00,60.0,34.0,-100.00,WSW,246,0.0,2.0,37,0.00,,,0.00,,2013-07-29 06:02:00,
2013-07-29 00:22:00,58.0,33.0,-100.00,West,271,1.0,1.0,39,0.00,,,0.00,,2013-07-29 06:22:00,
2013-07-29 00:32:00,58.0,33.0,-100.00,West,271,1.0,1.0,39,0.00,,,0.00,,2013-07-29 06:32:00,
2013-07-29 00:52:00,59.0,35.0,-100.00,West,275,1.0,2.0,39,0.00,,,0.00,,2013-07-29 06:52:00,
2013-07-29 01:02:00,59.0,35.0,-100.00,West,275,1.0,2.0,39,0.00,,,0.00,,2013-07-29 07:02:00,
2013-07-29 01:22:00,57.0,36.0,-100.00,West,268,1.0,2.0,45,0.00,,,0.00,,2013-07-29 07:22:00,
2013-07-29 01:33:00,57.0,36.0,-100.00,West,268,1.0,2.0,45,0.00,,,0.00,,2013-07-29 07:33:00,
2013-07-29 01:43:00,56.0,38.0,-100.00,WSW,256,0.0,1.0,51,0.00,,,0.00,,2013-07-29 07:43:00,
2013-07-29 01:53:00,56.0,38.0,-100.00,WSW,256,0.0,1.0,51,0.00,,,0.00,,2013-07-29 07:53:00,
2013-07-29 02:02:00,56.0,38.0,-100.00,WSW,256,0.0,1.0,51,0.00,,,0.00,,2013-07-29 08:02:00,
2013-07-29 02:12:00,56.0,38.0,-100.00,WSW,256,0.0,1.0,51,0.00,,,0.00,,2013-07-29 08:12:00,
2013-07-29 02:33:00,58.0,37.0,-100.00,West,263,2.0,3.0,45,0.00,,,0.00,,2013-07-29 08:33:00,
2013-07-29 02:42:00,58.0,37.0,-100.00,WSW,258,2.0,4.0,45,0.00,,,0.00,,2013-07-29 08:42:00,
2013-07-29 02:52:00,58.0,37.0,-100.00,WSW,258,2.0,4.0,45,0.00,,,0.00,,2013-07-29 08:52:00,
2013-07-29 03:02:00,58.0,37.0,-100.00,WSW,258,3.0,4.0,45,0.00,,,0.00,,2013-07-29 09:02:00,
2013-07-29 03:12:00,58.0,37.0,-100.00,WSW,258,3.0,4.0,45,0.00,,,0.00,,2013-07-29 09:12:00,
2013-07-29 03:22:00,58.0,37.0,-100.00,WSW,258,3.0,4.0,45,0.00,,,0.00,,2013-07-29 09:22:00,
2013-07-29 03:33:00,55.0,39.0,-100.00,SSW,199,0.0,2.0,54,0.00,,,0.00,,2013-07-29 09:33:00,
2013-07-29 03:43:00,55.0,39.0,-100.00,SSW,199,0.0,2.0,54,0.00,,,0.00,,2013-07-29 09:43:00,
2013-07-29 04:00:00,53.0,38.0,-100.00,WNW,284,1.0,2.0,58,0.00,,,0.00,,2013-07-29 10:00:00,
2013-07-29 04:02:00,53.0,38.0,-100.00,ENE,65,0.0,0.0,55,0.00,,,0.00,,2013-07-29 10:02:00,
2013-07-29 04:12:00,53.0,38.0,-100.00,ENE,65,0.0,0.0,55,0.00,,,0.00,,2013-07-29 10:12:00,
2013-07-29 04:23:00,53.0,38.0,-100.00,ENE,65,0.0,0.0,55,0.00,,,0.00,,2013-07-29 10:23:00,
2013-07-29 04:33:00,53.0,38.0,-100.00,WNW,284,1.0,2.0,58,0.00,,,0.00,,2013-07-29 10:33:00,
2013-07-29 04:48:00,53.0,38.0,-100.00,WNW,284,1.0,2.0,58,0.00,,,0.00,,2013-07-29 10:48:00,
2013-07-29 04:55:00,53.0,38.0,-100.00,WNW,284,1.0,2.0,58,0.00,,,0.00,,2013-07-29 10:55:00,
2013-07-29 05:22:00,52.0,38.0,-100.00,West,270,1.0,2.0,59,0.00,,,0.00,,2013-07-29 11:22:00,
2013-07-29 05:34:00,52.0,38.0,-100.00,West,270,1.0,2.0,59,0.00,,,0.00,,2013-07-29 11:34:00,
2013-07-29 05:44:00,50.0,38.0,-100.00,ENE,68,0.0,1.0,63,0.00,,,0.00,,2013-07-29 11:44:00,
2013-07-29 05:58:00,50.0,38.0,-100.00,ENE,68,0.0,1.0,63,0.00,,,0.00,,2013-07-29 11:58:00,
2013-07-29 06:04:00,50.0,38.0,-100.00,ENE,68,0.0,1.0,63,0.00,,,0.00,,2013-07-29 12:04:00,
2013-07-29 06:13:00,48.0,38.0,-100.00,East,93,1.0,1.0,67,0.00,,,0.00,,2013-07-29 12:13:00,
2013-07-29 06:24:00,48.0,38.0,-100.00,East,93,1.0,1.0,67,0.00,,,0.00,,2013-07-29 12:24:00,
2013-07-29 06:34:00,48.0,38.0,-100.00,East,93,1.0,1.0,67,0.00,,,0.00,,2013-07-29 12:34:00,
2013-07-29 06:44:00,48.0,39.0,-100.00,East,80,1.0,2.0,71,0.00,,,0.00,,2013-07-29 12:44:00,
2013-07-29 06:57:00,48.0,39.0,-100.00,East,80,1.0,2.0,71,0.00,,,0.00,,2013-07-29 12:57:00,
2013-07-29 07:03:00,48.0,39.0,-100.00,East,80,1.0,2.0,71,0.00,,,0.00,,2013-07-29 13:03:00,
2013-07-29 07:13:00,48.0,39.0,-100.00,East,80,1.0,2.0,71,0.00,,,0.00,,2013-07-29 13:13:00,
2013-07-29 07:45:00,48.0,41.0,-100.00,ENE,76,2.0,3.0,76,0.00,,,0.00,,2013-07-29 13:45:00,
2013-07-29 08:03:00,48.0,42.0,-100.00,ENE,72,2.0,3.0,77,0.00,,,0.00,,2013-07-29 14:03:00,
2013-07-29 08:12:00,48.0,42.0,-100.00,ENE,72,2.0,3.0,77,0.00,,,0.00,,2013-07-29 14:12:00,
2013-07-29 08:48:00,53.0,44.0,-100.00,East,79,3.0,4.0,72,0.00,,,0.00,,2013-07-29 14:48:00,
2013-07-29 08:56:00,53.0,44.0,-100.00,East,79,3.0,4.0,72,0.00,,,0.00,,2013-07-29 14:56:00,
2013-07-29 09:00:00,61.0,43.0,-100.00,ENE,69,6.0,7.0,52,0.00,,,0.00,,2013-07-29 15:00:00,
2013-07-29 09:34:00,61.0,43.0,-100.00,ENE,69,6.0,7.0,52,0.00,,,0.00,,2013-07-29 15:34:00,
2013-07-29 09:45:00,61.0,43.0,-100.00,ENE,69,6.0,7.0,52,0.00,,,0.00,,2013-07-29 15:45:00,
2013-07-29 09:55:00,61.0,43.0,-100.00,ENE,69,6.0,7.0,52,0.00,,,0.00,,2013-07-29 15:55:00,
2013-07-29 10:23:00,63.0,39.0,-100.00,ENE,72,5.0,7.0,41,0.00,,,0.00,,2013-07-29 16:23:00,
2013-07-29 10:35:00,63.0,39.0,-100.00,ENE,72,5.0,7.0,41,0.00,,,0.00,,2013-07-29 16:35:00,
2013-07-29 10:57:00,65.0,40.0,-100.00,ENE,78,5.0,7.0,39,0.00,,,0.00,,2013-07-29 16:57:00,
2013-07-29 11:23:00,67.0,38.0,-100.00,East,80,2.0,5.0,33,0.00,,,0.00,,2013-07-29 17:23:00,
2013-07-29 11:36:00,67.0,38.0,-100.00,East,80,2.0,5.0,33,0.00,,,0.00,,2013-07-29 17:36:00,
2013-07-29 11:58:00,71.0,36.0,-100.00,NNE,17,4.0,6.0,28,0.00,,,0.00,,2013-07-29 17:58:00,
2013-07-29 12:04:00,71.0,36.0,-100.00,NNE,17,4.0,6.0,28,0.00,,,0.00,,2013-07-29 18:04:00,
2013-07-29 12:22:00,73.0,35.0,-100.00,ESE,102,2.0,4.0,25,0.00,,,0.00,,2013-07-29 18:22:00,
2013-07-29 12:32:00,73.0,35.0,-100.00,ESE,102,2.0,4.0,25,0.00,,,0.00,,2013-07-29 18:32:00,
2013-07-29 12:58:00,74.0,35.0,-100.00,ENE,61,5.0,7.0,24,0.00,,,0.00,,2013-07-29 18:58:00,
2013-07-29 13:24:00,76.0,33.0,-100.00,West,278,4.0,8.0,21,0.00,,,0.00,,2013-07-29 19:24:00,
2013-07-29 13:36:00,76.0,33.0,-100.00,West,278,4.0,8.0,21,0.00,,,0.00,,2013-07-29 19:36:00,
2013-07-29 13:44:00,76.0,29.0,-100.00,NW,320,5.0,9.0,17,0.00,,,0.00,,2013-07-29 19:44:00,
2013-07-29 13:57:00,76.0,29.0,-100.00,NW,320,5.0,9.0,17,0.00,,,0.00,,2013-07-29 19:57:00,
2013-07-29 14:04:00,76.0,29.0,-100.00,NW,320,5.0,9.0,17,0.00,,,0.00,,2013-07-29 20:04:00,
2013-07-29 14:13:00,78.0,31.0,-100.00,WSW,247,3.0,5.0,18,0.00,,,0.00,,2013-07-29 20:13:00,
2013-07-29 14:23:00,78.0,31.0,-100.00,WSW,247,3.0,5.0,18,0.00,,,0.00,,2013-07-29 20:23:00,
2013-07-29 14:33:00,78.0,31.0,-100.00,WSW,247,3.0,5.0,18,0.00,,,0.00,,2013-07-29 20:33:00,
2013-07-29 14:44:00,78.0,29.0,-100.00,WNW,301,5.0,10.0,16,0.00,,,0.00,,2013-07-29 20:44:00,
2013-07-29 14:58:00,78.0,29.0,-100.00,WNW,301,5.0,10.0,16,0.00,,,0.00,,2013-07-29 20:58:00,
2013-07-29 15:04:00,78.0,29.0,-100.00,WNW,301,5.0,10.0,16,0.00,,,0.00,,2013-07-29 21:04:00,
2013-07-29 15:23:00,79.0,28.0,-100.00,West,261,4.0,9.0,15,0.00,,,0.00,,2013-07-29 21:23:00,
2013-07-29 15:59:00,79.0,29.0,-100.00,SW,223,2.0,4.0,16,0.00,,,0.00,,2013-07-29 21:59:00,
2013-07-29 16:24:00,77.0,27.0,-100.00,South,174,2.0,4.0,16,0.00,,,0.00,,2013-07-29 22:24:00,
2013-07-29 16:34:00,77.0,27.0,-100.00,South,174,2.0,4.0,16,0.00,,,0.00,,2013-07-29 22:34:00,
2013-07-29 16:43:00,78.0,28.0,-100.00,NNW,346,4.0,7.0,16,0.00,,,0.00,,2013-07-29 22:43:00,
2013-07-29 16:56:00,78.0,28.0,-100.00,NNW,346,4.0,7.0,16,0.00,,,0.00,,2013-07-29 22:56:00,
2013-07-29 17:04:00,78.0,28.0,-100.00,NNW,346,4.0,7.0,16,0.00,,,0.00,,2013-07-29 23:04:00,
2013-07-29 17:12:00,78.0,28.0,-100.00,NNW,346,4.0,7.0,16,0.00,,,0.00,,2013-07-29 23:12:00,
2013-07-29 17:24:00,77.0,27.0,-100.00,SE,127,5.0,8.0,16,0.00,,,0.00,,2013-07-29 23:24:00,
2013-07-29 17:34:00,77.0,27.0,-100.00,SE,127,5.0,8.0,16,0.00,,,0.00,,2013-07-29 23:34:00,
2013-07-29 17:44:00,77.0,31.0,-100.00,West,281,5.0,9.0,19,0.00,,,0.00,,2013-07-29 23:44:00,
2013-07-29 17:56:00,77.0,31.0,-100.00,West,281,5.0,9.0,19,0.00,,,0.00,,2013-07-29 23:56:00,
2013-07-29 18:03:00,77.0,31.0,-100.00,West,281,5.0,9.0,19,0.00,,,0.00,,2013-07-30 00:03:00,
2013-07-29 18:23:00,77.0,29.0,-100.00,West,261,2.0,7.0,17,0.00,,,0.00,,2013-07-30 00:23:00,
2013-07-29 18:33:00,77.0,29.0,-100.00,West,261,2.0,7.0,17,0.00,,,0.00,,2013-07-30 00:33:00,
2013-07-29 19:23:00,74.0,32.0,-100.00,West,263,2.0,4.0,21,0.00,,,0.00,,2013-07-30 01:23:00,
2013-07-29 21:03:00,66.0,35.0,-100.00,WNW,287,0.0,0.0,32,0.00,,,0.00,,2013-07-30 03:03:00,
2013-07-29 21:14:00,66.0,35.0,-100.00,WNW,287,0.0,0.0,32,0.00,,,0.00,,2013-07-30 03:14:00,
2013-07-29 21:23:00,66.0,35.0,-100.00,WNW,287,0.0,0.0,32,0.00,,,0.00,,2013-07-30 03:23:00,
2013-07-29 21:54:00,63.0,33.0,-100.00,East,97,0.0,1.0,33,0.00,,,0.00,,2013-07-30 03:54:00,
2013-07-29 22:02:00,62.0,33.0,-100.00,NE,34,0.0,0.0,33,0.00,,,0.00,,2013-07-30 04:02:00,
2013-07-29 22:12:00,62.0,33.0,-100.00,NE,34,0.0,0.0,33,0.00,,,0.00,,2013-07-30 04:12:00,
2013-07-29 22:22:00,62.0,33.0,-100.00,NE,34,0.0,0.0,33,0.00,,,0.00,,2013-07-30 04:22:00,
2013-07-29 22:32:00,61.0,31.0,-100.00,East,85,1.0,2.0,33,0.00,,,0.00,,2013-07-30 04:32:00,
2013-07-29 22:43:00,61.0,31.0,-100.00,East,85,1.0,2.0,33,0.00,,,0.00,,2013-07-30 04:43:00,
2013-07-29 22:53:00,61.0,31.0,-100.00,East,85,1.0,2.0,33,0.00,,,0.00,,2013-07-30 04:53:00,
2013-07-29 23:02:00,60.0,33.0,-100.00,ENE,72,2.0,2.0,36,0.00,,,0.00,,2013-07-30 05:02:00,
2013-07-29 23:12:00,60.0,33.0,-100.00,ENE,72,2.0,2.0,36,0.00,,,0.00,,2013-07-30 05:12:00,
2013-07-29 23:22:00,60.0,33.0,-100.00,ENE,72,2.0,2.0,36,0.00,,,0.00,,2013-07-30 05:22:00,
2013-07-29 23:45:00,61.0,34.0,-100.00,East,99,1.0,2.0,36,0.00,,,0.00,,2013-07-30 05:45:00,